createdAt,value
2019-01-19T00:04:43.856Z,2.2
2019-01-19T00:09:49.721Z,2.4
2019-01-19T00:14:55.573Z,2.3
2019-01-19T00:20:00.620Z,2.4
2019-01-19T00:25:06.553Z,2.2
2019-01-19T00:30:12.626Z,2.3
2019-01-19T00:35:18.922Z,2.2
2019-01-19T00:40:24.992Z,2
2019-01-19T00:45:30.282Z,2
2019-01-19T00:50:36.117Z,1.9
2019-01-19T00:55:39.938Z,2.2
2019-01-19T01:00:45.917Z,2.2
2019-01-19T01:05:51.274Z,2.2
2019-01-19T01:10:56.854Z,2
2019-01-19T01:16:01.960Z,2.1
2019-01-19T01:21:07.074Z,2.1
2019-01-19T01:26:13.331Z,2.1
2019-01-19T01:31:18.626Z,1.9
2019-01-19T01:36:24.185Z,2.1
2019-01-19T01:41:30.041Z,2.1
2019-01-19T01:46:35.674Z,2.1
2019-01-19T01:51:40.716Z,1.9
2019-01-19T01:56:45.722Z,2
2019-01-19T02:01:50.641Z,2.2
2019-01-19T02:06:56.234Z,2
2019-01-19T02:12:01.903Z,2
2019-01-19T02:17:07.053Z,1.9
2019-01-19T02:22:12.616Z,1.9
2019-01-19T02:27:18.604Z,2
2019-01-19T02:32:22.659Z,2.1
2019-01-19T02:37:27.989Z,1.8
2019-01-19T02:42:33.187Z,2
2019-01-19T02:47:38.616Z,2.2
2019-01-19T02:52:44.453Z,2.1
2019-01-19T02:57:49.919Z,2
2019-01-19T03:02:55.814Z,2.1
2019-01-19T03:08:01.404Z,2.2
2019-01-19T03:13:06.383Z,2.1
2019-01-19T03:18:13.505Z,2.2
2019-01-19T03:23:18.784Z,2.1
2019-01-19T03:28:23.957Z,2.3
2019-01-19T03:33:29.023Z,2.4
2019-01-19T03:38:34.278Z,2.2
2019-01-19T03:43:40.072Z,2.3
2019-01-19T03:48:45.619Z,2.2
2019-01-19T03:53:50.060Z,2.7
2019-01-19T03:58:55.888Z,2.3
2019-01-19T04:04:01.020Z,2.3
2019-01-19T04:09:06.449Z,2.4
2019-01-19T04:14:12.260Z,2.4
2019-01-19T04:19:18.099Z,2.5
2019-01-19T04:24:23.342Z,2.6
2019-01-19T04:29:28.817Z,2.4
2019-01-19T04:34:34.483Z,2.6
2019-01-19T04:39:40.460Z,2.5
2019-01-19T04:44:45.498Z,2.7
2019-01-19T04:49:51.079Z,2.3
2019-01-19T04:54:56.105Z,2.4
2019-01-19T05:00:01.601Z,2.6
2019-01-19T05:05:07.513Z,2.4
2019-01-19T05:10:13.851Z,2.6
2019-01-19T05:15:19.750Z,2.6
2019-01-19T05:20:25.109Z,2.3
2019-01-19T05:25:30.568Z,2.2
2019-01-19T05:30:36.543Z,2.4
2019-01-19T05:35:42.222Z,2.2
2019-01-19T05:40:48.224Z,2.2
2019-01-19T05:45:54.161Z,2.3
2019-01-19T05:50:58.406Z,2.3
2019-01-19T05:56:03.959Z,2.4
2019-01-19T06:01:09.161Z,2.4
2019-01-19T06:06:14.427Z,2.4
2019-01-19T06:11:19.808Z,2.8
2019-01-19T06:16:25.725Z,2.6
2019-01-19T06:21:31.389Z,2.8
2019-01-19T06:26:36.898Z,2.7
2019-01-19T06:31:42.721Z,2.8
2019-01-19T06:36:56.080Z,2.8
2019-01-19T06:41:52.258Z,2.6
2019-01-19T06:46:57.268Z,2.6
2019-01-19T06:52:03.262Z,2.4
2019-01-19T06:57:08.605Z,2.5
2019-01-19T07:02:14.248Z,2.8
2019-01-19T07:07:19.253Z,2.4
2019-01-19T07:12:24.412Z,3.2
2019-01-19T07:17:29.939Z,8.8
2019-01-19T07:22:36.161Z,13.3
2019-01-19T07:27:41.722Z,12.2
2019-01-19T07:32:47.144Z,13.2
2019-01-19T07:37:52.647Z,10.8
2019-01-19T07:42:58.706Z,11
2019-01-19T07:48:04.347Z,7.7
2019-01-19T07:53:09.428Z,7.1
2019-01-19T07:58:15.244Z,7
2019-01-19T08:03:19.343Z,7.5
2019-01-19T08:08:24.401Z,6.5
2019-01-19T08:13:31.504Z,6.7
2019-01-19T08:18:36.948Z,6.4
2019-01-19T08:23:43.045Z,5.7
2019-01-19T08:28:48.081Z,5.8
2019-01-19T08:33:53.163Z,5.4
2019-01-19T08:38:57.569Z,4.6
2019-01-19T08:44:03.087Z,4.9
2019-01-19T08:49:10.246Z,4.3
2019-01-19T08:54:15.696Z,4
2019-01-19T08:59:21.304Z,4.3
2019-01-19T09:04:27.251Z,4.1
2019-01-19T09:09:32.667Z,4.1
2019-01-19T09:14:38.423Z,3.9
2019-01-19T09:19:43.427Z,3.4
2019-01-19T09:24:48.749Z,3.7
2019-01-19T09:29:54.212Z,3.5
2019-01-19T09:34:59.854Z,3.5
2019-01-19T09:40:07.576Z,3.3
2019-01-19T09:45:14.458Z,3.3
2019-01-19T09:50:18.532Z,3.2
2019-01-19T09:55:24.209Z,3.2
2019-01-19T10:00:37.875Z,3.3
2019-01-19T10:05:30.410Z,3
2019-01-19T10:10:35.400Z,2.9
2019-01-19T10:15:40.508Z,2.9
2019-01-19T10:20:45.467Z,3.3
2019-01-19T10:25:51.824Z,3.2
2019-01-19T10:30:57.574Z,3.5
2019-01-19T10:36:03.572Z,3.1
2019-01-19T10:41:08.568Z,3.2
2019-01-19T10:46:15.121Z,8.5
2019-01-19T10:51:20.809Z,18.1
2019-01-19T10:56:25.912Z,35.9
2019-01-19T11:01:31.733Z,31.6
2019-01-19T11:06:37.515Z,30.9
2019-01-19T11:11:54.530Z,28.8
2019-01-19T11:17:00.524Z,31.2
2019-01-19T11:22:06.440Z,26.5
2019-01-19T11:27:14.291Z,21.4
2019-01-19T11:32:19.317Z,18.5
2019-01-19T11:37:24.394Z,14.8
2019-01-19T11:42:29.363Z,14
2019-01-19T11:47:33.536Z,12.2
2019-01-19T11:52:38.524Z,10.8
2019-01-19T11:57:44.926Z,9.7
2019-01-19T12:02:50.902Z,9.6
2019-01-19T12:07:54.709Z,8.2
2019-01-19T12:12:59.843Z,10.4
2019-01-19T12:18:05.677Z,8.6
2019-01-19T12:23:10.631Z,7.5
2019-01-19T12:28:15.866Z,6.7
2019-01-19T12:33:21.823Z,6.3
2019-01-19T12:38:27.890Z,5.6
2019-01-19T12:43:32.982Z,5.5
2019-01-19T12:48:38.034Z,5.2
2019-01-19T12:53:43.412Z,4.9
2019-01-19T12:58:48.506Z,4.5
2019-01-19T13:03:54.198Z,4.2
2019-01-19T13:08:59.355Z,4.2
2019-01-19T13:14:04.484Z,4.1
2019-01-19T13:19:09.591Z,3.9
2019-01-19T13:24:13.381Z,3.7
2019-01-19T13:29:18.615Z,3.5
2019-01-19T13:34:23.745Z,3.5
2019-01-19T13:39:28.900Z,3.5
2019-01-19T13:44:34.837Z,3.4
2019-01-19T13:49:39.003Z,3.3
2019-01-19T13:54:44.070Z,3.1
2019-01-19T13:59:49.350Z,3.2
2019-01-19T14:04:55.129Z,3
2019-01-19T14:10:00.194Z,2.8
2019-01-19T14:15:05.699Z,2.8
2019-01-19T14:20:11.691Z,2.6
2019-01-19T14:25:17.040Z,2.8
2019-01-19T14:30:23.321Z,2.6
2019-01-19T14:35:29.295Z,2.7
2019-01-19T14:40:34.979Z,3.1
2019-01-19T14:45:40.929Z,2.9
2019-01-19T14:50:46.942Z,2.7
2019-01-19T14:55:51.993Z,3.3
2019-01-19T15:00:57.935Z,2.7
2019-01-19T15:06:03.332Z,2.6
2019-01-19T15:11:09.347Z,3.1
2019-01-19T15:16:15.061Z,4.3
2019-01-19T15:21:20.962Z,4
2019-01-19T15:26:26.211Z,3.6
2019-01-19T15:31:32.353Z,3.7
2019-01-19T15:36:37.927Z,3.3
2019-01-19T15:54:19.870Z,3
2019-01-19T15:59:25.028Z,3.4
2019-01-19T16:04:30.632Z,3.3
2019-01-19T16:09:37.103Z,3
2019-01-19T16:14:42.808Z,3.3
2019-01-19T16:19:47.910Z,2.9
2019-01-19T16:24:52.867Z,3.2
2019-01-19T16:29:57.964Z,2.8
2019-01-19T16:35:03.760Z,2.7
2019-01-19T16:40:09.548Z,2.7
2019-01-19T16:45:14.604Z,2.8
2019-01-19T16:50:19.565Z,2.6
2019-01-19T16:55:24.673Z,2.8
2019-01-19T17:00:30.312Z,2.8
2019-01-19T17:05:37.093Z,3.1
2019-01-19T17:10:36.896Z,3.3
2019-01-19T17:15:41.857Z,3.3
2019-01-19T17:20:47.309Z,3.4
2019-01-19T17:25:52.316Z,3.6
2019-01-19T17:30:57.403Z,3.3
2019-01-19T17:36:02.376Z,3.5
2019-01-19T17:41:07.447Z,3.2
2019-01-19T17:46:13.033Z,3.1
2019-01-19T17:51:18.384Z,3.2
2019-01-19T17:56:23.477Z,3.1
2019-01-19T18:01:28.760Z,3.2
2019-01-19T18:06:34.415Z,2.9
2019-01-19T18:11:39.470Z,3.1
2019-01-19T18:16:44.512Z,3.1
2019-01-19T18:21:50.524Z,2.8
2019-01-19T18:26:55.681Z,3.2
2019-01-19T18:32:01.284Z,3
2019-01-19T18:37:07.228Z,3.3
2019-01-19T18:42:11.529Z,3.3
2019-01-19T18:47:21.046Z,3.4
2019-01-19T18:52:27.041Z,3.4
2019-01-19T18:57:32.076Z,2.8
2019-01-19T19:02:37.189Z,3
2019-01-19T19:07:42.877Z,2.9
2019-01-19T19:12:48.012Z,2.9
2019-01-19T19:17:53.332Z,14.7
2019-01-19T19:22:58.659Z,21
2019-01-19T19:28:03.855Z,17.7
2019-01-19T19:33:09.215Z,14.2
2019-01-19T19:38:14.326Z,13
2019-01-19T19:43:19.998Z,12.2
2019-01-19T19:48:20.964Z,10.9
2019-01-19T19:53:26.225Z,10.7
2019-01-19T19:58:31.576Z,9.8
2019-01-19T20:03:37.767Z,8.9
2019-01-19T20:08:43.467Z,8.9
2019-01-19T20:13:48.920Z,8
2019-01-19T20:18:54.764Z,7.7
2019-01-19T20:24:00.124Z,7.1
2019-01-19T20:29:06.153Z,6.5
2019-01-19T20:34:11.437Z,6.9
2019-01-19T20:39:16.892Z,6.4
2019-01-19T20:44:20.456Z,5.7
2019-01-19T20:49:25.655Z,6.3
2019-01-19T20:54:31.307Z,5.8
2019-01-19T20:59:36.329Z,6.3
2019-01-19T21:04:41.556Z,5.8
2019-01-19T21:09:47.455Z,6
2019-01-19T21:14:53.146Z,5.6
2019-01-19T21:19:59.756Z,5.3
2019-01-19T21:25:05.675Z,5.5
2019-01-19T21:30:11.217Z,5.1
2019-01-19T21:35:17.033Z,5.4
2019-01-19T21:40:22.079Z,5.5
2019-01-19T21:45:26.656Z,5.5
2019-01-19T21:50:31.992Z,5.1
2019-01-19T21:55:37.863Z,5.5
2019-01-19T22:00:41.637Z,5
2019-01-19T22:05:50.685Z,4.6
2019-01-19T22:10:55.877Z,5
2019-01-19T22:16:01.102Z,4.5
2019-01-19T22:21:06.845Z,4.6
2019-01-19T22:26:11.805Z,4.6
2019-01-19T22:31:15.192Z,4.4
2019-01-19T22:36:20.443Z,4.7
2019-01-19T22:41:26.135Z,4.6
2019-01-19T22:46:14.310Z,5
2019-01-19T22:47:39.994Z,5
2019-01-19T22:50:32.640Z,4.3
2019-01-19T22:51:53.443Z,4.7
2019-01-19T22:56:58.438Z,4.2
2019-01-19T23:02:03.843Z,4.5
2019-01-19T23:07:09.512Z,4.3
2019-01-19T23:12:22.925Z,4.1
2019-01-19T23:17:25.003Z,3.9
2019-01-19T23:22:29.819Z,4.4
2019-01-19T23:27:34.967Z,4
2019-01-19T23:32:41.232Z,3.8
2019-01-19T23:37:46.780Z,3.8
2019-01-19T23:42:52.440Z,3.6
2019-01-19T23:47:58.319Z,3.7
2019-01-19T23:53:04.057Z,3.6
2019-01-19T23:58:09.013Z,3.6
